createdAt,value
2023-01-17T00:02:18.737Z,-2.96
2023-01-17T00:05:05.538Z,-3.55
2023-01-17T00:07:52.090Z,-3.06
2023-01-17T00:10:22.134Z,-3.10
2023-01-17T00:12:52.495Z,-3.04
2023-01-17T00:15:20.458Z,-3.02
2023-01-17T00:17:49.794Z,-3.19
2023-01-17T00:20:38.726Z,-3.04
2023-01-17T00:23:42.130Z,-3.06
2023-01-17T00:26:20.017Z,-3.11
2023-01-17T00:28:49.336Z,-3.06
2023-01-17T00:31:17.444Z,-3.02
2023-01-17T00:33:45.467Z,-3.06
2023-01-17T00:36:12.919Z,-3.06
2023-01-17T00:38:40.837Z,-3.08
2023-01-17T00:41:10.442Z,-3.13
2023-01-17T00:43:57.191Z,-3.09
2023-01-17T00:46:43.425Z,-3.09
2023-01-17T00:49:29.713Z,-3.18
2023-01-17T00:52:15.914Z,-3.20
2023-01-17T00:55:02.314Z,-3.48
2023-01-17T00:57:49.858Z,-3.15
2023-01-17T01:00:37.628Z,-3.36
2023-01-17T01:03:28.293Z,-3.17
2023-01-17T01:06:14.478Z,-3.16
2023-01-17T01:09:00.254Z,-3.11
2023-01-17T01:11:46.542Z,-3.07
2023-01-17T01:14:32.237Z,-3.39
2023-01-17T01:17:17.951Z,-3.04
2023-01-17T01:20:04.005Z,-3.48
2023-01-17T01:22:50.897Z,-3.07
2023-01-17T01:25:36.597Z,-3.24
2023-01-17T01:28:29.531Z,-3.11
2023-01-17T01:31:17.794Z,-3.06
2023-01-17T01:33:45.503Z,-3.03
2023-01-17T01:36:12.938Z,-2.99
2023-01-17T01:38:40.486Z,-3.06
2023-01-17T01:41:08.161Z,-3.05
2023-01-17T01:43:51.123Z,-3.05
2023-01-17T01:46:32.315Z,-3.05
2023-01-17T01:49:21.789Z,-3.01
2023-01-17T01:52:00.128Z,-3.55
2023-01-17T01:54:44.686Z,-3.12
2023-01-17T01:57:17.372Z,-3.31
2023-01-17T01:59:49.345Z,-3.00
2023-01-17T02:02:17.242Z,-2.98
2023-01-17T02:04:45.741Z,-3.39
2023-01-17T02:07:26.095Z,-2.92
2023-01-17T02:09:54.910Z,-2.94
2023-01-17T02:12:22.746Z,-2.91
2023-01-17T02:14:51.072Z,-2.90
2023-01-17T02:17:37.314Z,-2.92
2023-01-17T02:20:33.750Z,-2.94
2023-01-17T02:23:38.798Z,-2.96
2023-01-17T02:26:24.046Z,-2.96
2023-01-17T02:29:24.979Z,-2.96
2023-01-17T02:32:06.030Z,-2.94
2023-01-17T02:34:52.227Z,-2.87
2023-01-17T02:37:29.009Z,-2.90
2023-01-17T02:40:14.627Z,-2.90
2023-01-17T02:42:51.082Z,-2.89
2023-01-17T02:45:19.580Z,-3.10
2023-01-17T02:47:47.568Z,-2.94
2023-01-17T02:50:22.390Z,-3.26
2023-01-17T02:52:56.759Z,-2.81
2023-01-17T02:55:38.451Z,-3.05
2023-01-17T02:58:13.397Z,-2.78
2023-01-17T03:01:02.119Z,-2.73
2023-01-17T03:03:51.032Z,-2.78
2023-01-17T03:06:29.733Z,-2.75
2023-01-17T03:08:57.396Z,-3.23
2023-01-17T03:11:25.061Z,-2.76
2023-01-17T03:13:57.288Z,-2.78
2023-01-17T03:16:27.738Z,-2.76
2023-01-17T03:18:55.397Z,-2.82
2023-01-17T03:21:24.281Z,-2.74
2023-01-17T03:23:52.483Z,-2.77
2023-01-17T03:26:19.894Z,-2.73
2023-01-17T03:28:47.626Z,-2.71
2023-01-17T03:31:17.040Z,-2.72
2023-01-17T03:33:44.295Z,-2.76
2023-01-17T03:36:12.475Z,-2.72
2023-01-17T03:38:40.100Z,-3.21
2023-01-17T03:41:08.332Z,-2.68
2023-01-17T03:43:36.019Z,-2.66
2023-01-17T03:46:05.614Z,-2.68
2023-01-17T03:48:33.848Z,-2.66
2023-01-17T03:51:01.363Z,-3.22
2023-01-17T03:53:28.849Z,-2.68
2023-01-17T03:55:56.462Z,-2.72
2023-01-17T03:58:24.225Z,-2.65
2023-01-17T04:00:51.735Z,-2.64
2023-01-17T04:03:19.028Z,-2.65
2023-01-17T04:05:46.984Z,-2.67
2023-01-17T04:08:14.454Z,-2.62
2023-01-17T04:10:42.213Z,-2.66
2023-01-17T04:13:09.773Z,-2.63
2023-01-17T04:15:37.164Z,-2.65
2023-01-17T04:18:06.744Z,-2.64
2023-01-17T04:20:38.290Z,-2.69
2023-01-17T04:23:06.734Z,-2.65
2023-01-17T04:25:34.771Z,-2.60
2023-01-17T04:28:04.018Z,-2.56
2023-01-17T04:30:32.868Z,-2.54
2023-01-17T04:33:00.485Z,-2.55
2023-01-17T04:35:31.201Z,-2.59
2023-01-17T04:37:58.712Z,-2.53
2023-01-17T04:40:26.610Z,-2.50
2023-01-17T04:42:54.672Z,-2.53
2023-01-17T04:45:22.221Z,-2.58
2023-01-17T04:47:50.000Z,-2.48
2023-01-17T04:50:18.522Z,-2.43
2023-01-17T04:52:45.911Z,-2.49
2023-01-17T04:55:13.629Z,-2.68
2023-01-17T04:57:41.637Z,-2.96
2023-01-17T05:00:09.557Z,-2.46
2023-01-17T05:02:37.052Z,-2.44
2023-01-17T05:05:05.242Z,-2.43
2023-01-17T05:07:34.972Z,-2.49
2023-01-17T05:10:04.630Z,-2.44
2023-01-17T05:12:32.402Z,-2.39
2023-01-17T05:15:00.022Z,-2.37
2023-01-17T05:17:27.405Z,-2.36
2023-01-17T05:19:55.026Z,-2.36
2023-01-17T05:22:22.584Z,-2.69
2023-01-17T05:24:49.890Z,-2.36
2023-01-17T05:27:17.611Z,-2.36
2023-01-17T05:29:45.202Z,-2.69
2023-01-17T05:32:12.749Z,-2.36
2023-01-17T05:34:40.300Z,-2.39
2023-01-17T05:37:07.751Z,-2.38
2023-01-17T05:39:35.385Z,-2.34
2023-01-17T05:42:03.058Z,-2.34
2023-01-17T05:44:30.485Z,-2.37
2023-01-17T05:46:58.005Z,-2.38
2023-01-17T05:49:25.784Z,-2.40
2023-01-17T05:51:54.894Z,-2.34
2023-01-17T05:54:22.424Z,-2.39
2023-01-17T05:56:49.958Z,-2.34
2023-01-17T05:59:25.617Z,-2.34
2023-01-17T06:02:00.117Z,-2.28
2023-01-17T06:04:27.791Z,-2.29
2023-01-17T06:06:55.036Z,-2.29
2023-01-17T06:09:22.632Z,-2.28
2023-01-17T06:11:50.130Z,-2.21
2023-01-17T06:14:17.430Z,-2.46
2023-01-17T06:16:44.869Z,-2.26
2023-01-17T06:19:12.469Z,-2.23
2023-01-17T06:21:39.764Z,-2.19
2023-01-17T06:24:07.422Z,-2.16
2023-01-17T06:26:34.914Z,-2.16
2023-01-17T06:29:02.348Z,-2.13
2023-01-17T06:31:29.973Z,-2.14
2023-01-17T06:33:57.686Z,-2.19
2023-01-17T06:36:25.046Z,-2.09
2023-01-17T06:38:52.766Z,-2.14
2023-01-17T06:41:20.156Z,-2.39
2023-01-17T06:43:47.579Z,-2.03
2023-01-17T06:46:15.717Z,-2.01
2023-01-17T06:48:43.797Z,-2.03
2023-01-17T06:51:11.376Z,-1.96
2023-01-17T06:53:39.151Z,-2.29
2023-01-17T06:56:07.166Z,-2.14
2023-01-17T06:58:34.896Z,-1.89
2023-01-17T07:01:13.036Z,-1.87
2023-01-17T07:03:40.641Z,-1.83
2023-01-17T07:06:09.668Z,-1.79
2023-01-17T07:08:37.399Z,-2.02
2023-01-17T07:11:08.159Z,-1.74
2023-01-17T07:13:37.613Z,-1.70
2023-01-17T07:16:06.748Z,-1.78
2023-01-17T07:18:34.765Z,-1.75
2023-01-17T07:21:02.032Z,-1.80
2023-01-17T07:23:29.728Z,-1.73
2023-01-17T07:26:01.124Z,-1.70
2023-01-17T07:28:28.697Z,-1.68
2023-01-17T07:30:56.514Z,-1.93
2023-01-17T07:33:23.843Z,-1.94
2023-01-17T07:35:51.610Z,-1.59
2023-01-17T07:38:20.446Z,-1.55
2023-01-17T07:40:48.065Z,-1.52
2023-01-17T07:43:15.589Z,-1.47
2023-01-17T07:45:51.459Z,-1.46
2023-01-17T07:48:20.809Z,-1.78
2023-01-17T07:50:58.838Z,-1.73
2023-01-17T07:53:28.672Z,-1.47
2023-01-17T07:56:00.264Z,-1.65
2023-01-17T07:58:27.817Z,-1.42
2023-01-17T08:01:00.791Z,-1.34
2023-01-17T08:03:32.558Z,-1.38
2023-01-17T08:06:00.239Z,-1.35
2023-01-17T08:08:28.834Z,-1.28
2023-01-17T08:10:56.232Z,-1.23
2023-01-17T08:13:24.144Z,-1.25
2023-01-17T08:15:52.066Z,-1.18
2023-01-17T08:18:19.998Z,-1.09
2023-01-17T08:20:47.527Z,-1.05
2023-01-17T08:23:14.871Z,-1.04
2023-01-17T08:25:42.630Z,-1.27
2023-01-17T08:28:09.910Z,-0.97
2023-01-17T08:30:37.339Z,-0.93
2023-01-17T08:33:05.049Z,-0.97
2023-01-17T08:35:33.119Z,-0.93
2023-01-17T08:38:04.912Z,-0.91
2023-01-17T08:40:35.580Z,-0.92
2023-01-17T08:43:04.010Z,-0.89
2023-01-17T08:45:31.330Z,-0.77
2023-01-17T08:47:59.687Z,-0.76
2023-01-17T08:50:27.468Z,-0.75
2023-01-17T08:53:03.947Z,-0.77
2023-01-17T08:55:31.205Z,-0.86
2023-01-17T08:57:58.674Z,-0.74
2023-01-17T09:00:27.497Z,-0.68
2023-01-17T09:02:54.942Z,-0.58
2023-01-17T09:05:22.633Z,-0.52
2023-01-17T09:07:50.597Z,-0.48
2023-01-17T09:10:18.133Z,-0.35
2023-01-17T09:12:45.521Z,-0.30
2023-01-17T09:15:18.077Z,-0.27
2023-01-17T09:17:45.676Z,-0.34
2023-01-17T09:20:13.669Z,-0.31
2023-01-17T09:22:41.397Z,-0.33
2023-01-17T09:25:09.253Z,-0.33
2023-01-17T09:27:36.527Z,-0.25
2023-01-17T09:30:05.260Z,-0.20
2023-01-17T09:32:32.623Z,-0.17
2023-01-17T09:35:01.097Z,-0.40
2023-01-17T09:37:29.163Z,-0.12
2023-01-17T09:39:56.474Z,-0.02
2023-01-17T09:42:38.466Z,-0.03
2023-01-17T09:45:14.848Z,-0.03
2023-01-17T09:47:46.911Z,-0.26
2023-01-17T09:50:16.937Z,-0.22
2023-01-17T09:52:44.924Z,-0.23
2023-01-17T09:55:17.179Z,-0.18
2023-01-17T09:58:00.692Z,-0.15
2023-01-17T10:00:28.354Z,-0.10
2023-01-17T10:03:20.522Z,-0.10
2023-01-17T10:06:15.600Z,-0.13
2023-01-17T10:08:45.905Z,-0.05
2023-01-17T10:11:47.235Z,-0.06
2023-01-17T10:15:14.858Z,-0.12
2023-01-17T10:17:55.138Z,-0.12
2023-01-17T10:20:41.321Z,-0.12
2023-01-17T10:23:41.986Z,-0.20
2023-01-17T10:26:17.969Z,-0.14
2023-01-17T10:28:49.409Z,-0.10
2023-01-17T10:31:25.578Z,-0.02
2023-01-17T10:33:56.461Z,-0.07
2023-01-17T10:36:30.162Z,-0.09
2023-01-17T10:39:01.600Z,0.03
2023-01-17T10:41:44.019Z,0.02
2023-01-17T10:44:18.623Z,0.06
2023-01-17T10:46:55.122Z,0.09
2023-01-17T10:49:26.728Z,-0.02
2023-01-17T10:52:04.372Z,0.05
2023-01-17T10:54:44.235Z,0.08
2023-01-17T10:57:26.109Z,0.05
2023-01-17T11:00:00.144Z,-0.15
2023-01-17T11:02:32.165Z,0.04
2023-01-17T11:05:11.498Z,0.10
2023-01-17T11:07:40.183Z,0.19
2023-01-17T11:10:48.482Z,0.22
2023-01-17T11:13:35.893Z,0.32
2023-01-17T11:16:16.535Z,0.32
2023-01-17T11:18:44.141Z,-0.09
2023-01-17T11:21:21.960Z,0.35
2023-01-17T11:23:53.484Z,0.38
2023-01-17T11:26:24.017Z,0.40
2023-01-17T11:28:54.855Z,0.41
2023-01-17T11:31:27.001Z,0.17
2023-01-17T11:34:33.404Z,0.44
2023-01-17T11:37:20.754Z,0.56
2023-01-17T11:39:51.074Z,0.30
2023-01-17T11:42:33.862Z,0.54
2023-01-17T11:45:30.285Z,0.52
2023-01-17T11:48:23.961Z,0.48
2023-01-17T11:50:58.624Z,0.25
2023-01-17T11:53:30.639Z,0.46
2023-01-17T11:56:24.538Z,0.49
2023-01-17T11:58:52.299Z,0.51
2023-01-17T12:01:43.929Z,0.50
2023-01-17T12:04:23.742Z,0.50
2023-01-17T12:07:08.751Z,0.53
2023-01-17T12:10:09.660Z,0.48
2023-01-17T12:13:15.481Z,0.46
2023-01-17T12:15:52.275Z,0.48
2023-01-17T12:18:29.330Z,0.56
2023-01-17T12:21:15.411Z,0.59
2023-01-17T12:24:07.584Z,0.65
2023-01-17T12:26:50.033Z,0.55
2023-01-17T12:29:48.011Z,0.62
2023-01-17T12:32:38.683Z,0.66
2023-01-17T12:35:15.713Z,0.69
2023-01-17T12:38:04.250Z,0.70
2023-01-17T12:40:51.457Z,0.70
2023-01-17T12:43:23.884Z,0.75
2023-01-17T12:45:55.083Z,0.74
2023-01-17T12:48:26.104Z,0.80
2023-01-17T12:50:57.617Z,0.83
2023-01-17T12:53:38.129Z,0.88
2023-01-17T12:56:16.771Z,0.85
2023-01-17T12:58:52.495Z,0.85
2023-01-17T13:01:30.858Z,0.88
2023-01-17T13:04:20.160Z,0.90
2023-01-17T13:06:58.077Z,0.94
2023-01-17T13:09:28.387Z,0.94
2023-01-17T13:12:01.634Z,0.97
2023-01-17T13:14:29.244Z,0.94
2023-01-17T13:17:02.910Z,0.71
2023-01-17T13:19:54.423Z,0.89
2023-01-17T13:22:24.368Z,0.86
2023-01-17T13:25:30.893Z,0.86
2023-01-17T13:28:22.125Z,0.88
2023-01-17T13:31:14.117Z,0.89
2023-01-17T13:33:46.370Z,0.89
2023-01-17T13:36:25.553Z,0.90
2023-01-17T13:39:15.626Z,0.90
2023-01-17T13:42:03.233Z,0.91
2023-01-17T13:44:32.317Z,0.80
2023-01-17T13:47:04.578Z,0.84
2023-01-17T13:49:34.357Z,0.88
2023-01-17T13:52:03.545Z,0.84
2023-01-17T13:54:34.376Z,0.83
2023-01-17T13:57:29.275Z,0.74
2023-01-17T13:59:58.426Z,0.72
2023-01-17T14:02:32.216Z,0.67
2023-01-17T14:05:23.197Z,0.60
2023-01-17T14:08:06.276Z,0.61
2023-01-17T14:10:38.903Z,0.57
2023-01-17T14:13:27.225Z,0.68
2023-01-17T14:15:54.884Z,0.68
2023-01-17T14:18:31.948Z,0.66
2023-01-17T14:21:22.752Z,0.61
2023-01-17T14:23:59.749Z,0.30
2023-01-17T14:26:43.676Z,0.16
2023-01-17T14:29:45.708Z,0.62
2023-01-17T14:32:27.423Z,0.65
2023-01-17T14:34:55.350Z,0.46
2023-01-17T14:37:49.999Z,0.69
2023-01-17T14:40:26.469Z,0.75
2023-01-17T14:43:16.249Z,0.77
2023-01-17T14:45:44.246Z,0.80
2023-01-17T14:48:30.321Z,0.72
2023-01-17T14:51:02.309Z,0.72
2023-01-17T14:53:31.827Z,0.68
2023-01-17T14:56:03.891Z,0.69
2023-01-17T14:58:33.727Z,0.65
2023-01-17T15:01:11.847Z,0.62
2023-01-17T15:03:51.438Z,0.59
2023-01-17T15:06:25.552Z,0.56
2023-01-17T15:08:55.984Z,0.60
2023-01-17T15:11:27.165Z,0.60
2023-01-17T15:13:57.900Z,0.35
2023-01-17T15:16:31.278Z,0.68
2023-01-17T15:18:59.795Z,0.72
2023-01-17T15:21:35.671Z,0.69
2023-01-17T15:24:08.427Z,0.68
2023-01-17T15:26:40.622Z,0.68
2023-01-17T15:29:18.890Z,0.69
2023-01-17T15:31:50.134Z,0.70
2023-01-17T15:34:28.026Z,0.33
2023-01-17T15:36:58.303Z,0.71
2023-01-17T15:39:30.706Z,0.67
2023-01-17T15:42:01.144Z,0.67
2023-01-17T15:44:49.968Z,0.62
2023-01-17T15:47:29.386Z,0.56
2023-01-17T15:49:57.387Z,0.54
2023-01-17T15:52:24.872Z,0.59
2023-01-17T15:54:59.027Z,0.58
2023-01-17T15:57:31.722Z,0.55
2023-01-17T16:00:07.270Z,0.67
2023-01-17T16:02:38.817Z,0.67
2023-01-17T16:05:33.803Z,0.64
2023-01-17T16:08:04.709Z,0.67
2023-01-17T16:10:36.525Z,0.70
2023-01-17T16:13:06.508Z,0.70
2023-01-17T16:15:37.166Z,0.65
2023-01-17T16:18:16.748Z,0.68
2023-01-17T16:20:49.830Z,0.67
2023-01-17T16:23:17.424Z,0.68
2023-01-17T16:25:46.003Z,0.64
2023-01-17T16:28:13.931Z,0.67
2023-01-17T16:30:41.874Z,0.68
2023-01-17T16:33:12.299Z,0.69
2023-01-17T16:35:40.705Z,0.67
2023-01-17T16:38:12.260Z,0.64
2023-01-17T16:40:45.117Z,0.61
2023-01-17T16:43:18.362Z,0.59
2023-01-17T16:45:53.072Z,0.58
2023-01-17T16:48:21.452Z,0.53
2023-01-17T16:50:52.442Z,0.50
2023-01-17T16:53:28.373Z,0.41
2023-01-17T16:56:06.069Z,0.41
2023-01-17T16:58:33.776Z,0.39
2023-01-17T17:01:01.237Z,0.41
2023-01-17T17:03:29.799Z,0.41
2023-01-17T17:06:19.868Z,0.33
2023-01-17T17:08:47.816Z,0.31
2023-01-17T17:11:18.586Z,0.29
2023-01-17T17:13:48.118Z,0.29
2023-01-17T17:16:27.533Z,0.25
2023-01-17T17:19:00.676Z,0.22
2023-01-17T17:21:29.753Z,0.26
2023-01-17T17:23:59.614Z,0.27
2023-01-17T17:26:31.299Z,0.28
2023-01-17T17:28:59.345Z,0.28
2023-01-17T17:31:26.942Z,0.30
2023-01-17T17:33:59.185Z,0.23
2023-01-17T17:36:27.219Z,0.26
2023-01-17T17:38:56.147Z,0.24
2023-01-17T17:41:27.449Z,-0.39
2023-01-17T17:43:55.515Z,-0.12
2023-01-17T17:46:24.923Z,-0.36
2023-01-17T17:48:53.528Z,0.16
2023-01-17T17:51:32.890Z,0.10
2023-01-17T17:54:06.145Z,0.10
2023-01-17T17:56:34.406Z,0.12
2023-01-17T17:59:03.640Z,0.12
2023-01-17T18:01:31.660Z,0.10
2023-01-17T18:04:03.050Z,-0.11
2023-01-17T18:06:30.937Z,0.07
2023-01-17T18:08:58.489Z,0.11
2023-01-17T18:11:27.699Z,0.10
2023-01-17T18:13:57.017Z,0.10
2023-01-17T18:16:27.664Z,-0.13
2023-01-17T18:18:57.250Z,0.17
2023-01-17T18:21:35.797Z,0.07
2023-01-17T18:24:15.029Z,0.13
2023-01-17T18:26:47.979Z,-0.12
2023-01-17T18:29:17.873Z,0.12
2023-01-17T18:31:47.975Z,0.11
2023-01-17T18:34:21.442Z,0.12
2023-01-17T18:36:50.666Z,0.13
2023-01-17T18:39:27.870Z,0.11
2023-01-17T18:41:55.385Z,0.11
2023-01-17T18:44:22.894Z,-0.11
2023-01-17T18:46:53.528Z,-0.09
2023-01-17T18:49:21.214Z,-0.10
2023-01-17T18:51:51.873Z,0.17
2023-01-17T18:54:21.352Z,0.01
2023-01-17T18:56:54.196Z,0.17
2023-01-17T18:59:23.692Z,0.14
2023-01-17T19:01:52.345Z,-0.39
2023-01-17T19:04:22.030Z,0.09
2023-01-17T19:06:50.109Z,0.09
2023-01-17T19:09:19.886Z,0.04
2023-01-17T19:11:47.663Z,0.02
2023-01-17T19:14:18.502Z,0.08
2023-01-17T19:16:46.076Z,0.01
2023-01-17T19:19:15.479Z,-0.20
2023-01-17T19:21:43.766Z,-0.06
2023-01-17T19:24:14.487Z,-0.03
2023-01-17T19:26:43.269Z,-0.04
2023-01-17T19:29:11.027Z,-0.05
2023-01-17T19:31:42.936Z,-0.01
2023-01-17T19:34:11.251Z,-0.02
2023-01-17T19:36:39.675Z,-0.01
2023-01-17T19:39:12.120Z,-0.05
2023-01-17T19:41:45.189Z,-0.09
2023-01-17T19:44:14.820Z,-0.19
2023-01-17T19:46:44.013Z,-0.09
2023-01-17T19:49:11.944Z,-0.13
2023-01-17T19:51:42.266Z,-0.16
2023-01-17T19:54:09.703Z,-0.42
2023-01-17T19:56:37.464Z,-0.24
2023-01-17T19:59:05.100Z,-0.23
2023-01-17T20:01:34.658Z,-0.23
2023-01-17T20:04:03.570Z,-0.22
2023-01-17T20:06:34.334Z,-0.25
2023-01-17T20:09:02.195Z,-0.24
2023-01-17T20:11:29.796Z,-0.32
2023-01-17T20:13:59.015Z,-0.25
2023-01-17T20:16:28.820Z,-0.25
2023-01-17T20:18:58.206Z,-0.28
2023-01-17T20:21:28.104Z,-0.26
2023-01-17T20:23:57.682Z,-0.30
2023-01-17T20:26:31.389Z,-0.31
2023-01-17T20:28:59.087Z,-0.40
2023-01-17T20:31:27.313Z,-0.29
2023-01-17T20:33:56.263Z,-0.34
2023-01-17T20:36:26.381Z,-0.34
2023-01-17T20:38:54.796Z,-0.36
2023-01-17T20:41:24.555Z,-0.34
2023-01-17T20:43:54.362Z,-0.40
2023-01-17T20:46:24.963Z,-0.42
2023-01-17T20:48:54.655Z,-0.45
2023-01-17T20:51:24.542Z,-0.80
2023-01-17T20:53:54.524Z,-0.48
2023-01-17T20:56:22.308Z,-0.43
2023-01-17T20:58:51.896Z,-0.74
2023-01-17T21:01:21.513Z,-0.48
2023-01-17T21:03:51.852Z,-0.52
2023-01-17T21:06:21.705Z,-0.50
2023-01-17T21:08:49.720Z,-0.49
2023-01-17T21:11:19.376Z,-0.79
2023-01-17T21:13:48.918Z,-0.49
2023-01-17T21:16:18.542Z,-0.49
2023-01-17T21:18:52.498Z,-0.99
2023-01-17T21:21:25.828Z,-0.53
2023-01-17T21:23:55.325Z,-0.58
2023-01-17T21:26:25.784Z,-0.67
2023-01-17T21:28:53.990Z,-0.73
2023-01-17T21:31:26.427Z,-0.80
2023-01-17T21:33:58.336Z,-0.82
2023-01-17T21:36:32.852Z,-0.85
2023-01-17T21:39:04.950Z,-0.85
2023-01-17T21:41:35.429Z,-0.84
2023-01-17T21:44:08.411Z,-0.83
2023-01-17T21:46:40.278Z,-0.82
2023-01-17T21:49:12.850Z,-0.82
2023-01-17T21:51:52.739Z,-1.18
2023-01-17T21:54:46.986Z,-0.92
2023-01-17T21:57:38.764Z,-1.00
2023-01-17T22:00:09.048Z,-0.83
2023-01-17T22:02:40.083Z,-0.76
2023-01-17T22:05:09.304Z,-1.14
2023-01-17T22:07:39.405Z,-0.81
2023-01-17T22:10:07.178Z,-0.99
2023-01-17T22:12:34.685Z,-0.82
2023-01-17T22:15:02.337Z,-1.08
2023-01-17T22:17:31.584Z,-0.83
2023-01-17T22:19:58.995Z,-0.82
2023-01-17T22:22:26.695Z,-1.37
2023-01-17T22:24:53.997Z,-0.82
2023-01-17T22:27:21.271Z,-0.82
2023-01-17T22:29:48.945Z,-0.83
2023-01-17T22:32:17.010Z,-0.84
2023-01-17T22:34:44.271Z,-0.84
2023-01-17T22:37:11.969Z,-0.86
2023-01-17T22:39:39.614Z,-0.87
2023-01-17T22:42:07.597Z,-0.80
2023-01-17T22:44:35.160Z,-0.80
2023-01-17T22:47:03.423Z,-0.87
2023-01-17T22:49:30.792Z,-0.86
2023-01-17T22:51:58.278Z,-0.84
2023-01-17T22:54:25.892Z,-0.82
2023-01-17T22:56:54.311Z,-0.82
2023-01-17T22:59:22.033Z,-0.88
2023-01-17T23:01:49.930Z,-1.16
2023-01-17T23:04:17.516Z,-0.85
2023-01-17T23:06:45.110Z,-0.88
2023-01-17T23:09:14.976Z,-0.89
2023-01-17T23:11:50.068Z,-0.86
2023-01-17T23:14:26.055Z,-0.90
2023-01-17T23:17:15.105Z,-0.85
2023-01-17T23:19:48.263Z,-0.84
2023-01-17T23:22:20.536Z,-0.82
2023-01-17T23:24:58.392Z,-0.84
2023-01-17T23:27:48.282Z,-0.90
2023-01-17T23:30:20.825Z,-0.89
2023-01-17T23:32:57.442Z,-0.90
2023-01-17T23:35:27.780Z,-0.87
2023-01-17T23:38:15.946Z,-0.82
2023-01-17T23:41:04.362Z,-0.86
2023-01-17T23:43:33.082Z,-1.04
2023-01-17T23:46:00.872Z,-0.79
2023-01-17T23:48:28.674Z,-0.75
2023-01-17T23:51:07.292Z,-0.77
2023-01-17T23:53:36.119Z,-0.76
2023-01-17T23:56:14.200Z,-0.75
2023-01-17T23:58:41.763Z,-0.76
